Time;durP1;ratioP1;P1;durP2;ratioP2;P2;SDS_P1;SDS_P2;PMS_P1;PMS_P2;Temp;Humidity;BMP_temperature;BMP_pressure;BME280_temperature;BME280_humidity;BME280_pressure;Samples;Min_cycle;Max_cycle;Signal;HPM_P1;HPM_P2
2023/06/26 00:00:10;;;;;;;5.38;4.50;;;29.70;99.90;;;;;;5074644;28;20028;-68
2023/06/26 00:02:36;;;;;;;7.22;4.35;;;29.50;99.90;;;;;;5075455;28;20492;-68
2023/06/26 00:05:02;;;;;;;5.78;4.43;;;29.30;99.90;;;;;;5076273;28;20097;-68
2023/06/26 00:07:29;;;;;;;5.85;4.63;;;29.20;99.90;;;;;;5075579;28;20024;-68
2023/06/26 00:09:55;;;;;;;5.32;4.80;;;29.20;99.90;;;;;;5075863;28;20497;-69
2023/06/26 00:12:21;;;;;;;7.15;4.22;;;29.20;99.90;;;;;;5075710;28;20115;-68
2023/06/26 00:14:46;;;;;;;10.50;4.78;;;29.10;99.90;;;;;;5075869;28;20467;-68
2023/06/26 00:17:12;;;;;;;8.48;5.38;;;29.10;99.90;;;;;;5074749;28;20030;-69
2023/06/26 00:19:38;;;;;;;8.05;5.65;;;29.00;99.90;;;;;;5066467;28;20470;-69
2023/06/26 00:22:03;;;;;;;10.95;4.95;;;29.10;99.90;;;;;;5065167;28;20504;-69
2023/06/26 00:24:29;;;;;;;9.75;5.10;;;29.00;99.90;;;;;;5075867;28;20016;-69
2023/06/26 00:26:55;;;;;;;5.45;4.80;;;29.10;99.90;;;;;;5075229;28;20052;-69
2023/06/26 00:29:20;;;;;;;5.57;4.70;;;29.10;99.90;;;;;;5075268;28;20041;-67
2023/06/26 00:31:46;;;;;;;5.30;4.80;;;29.00;99.90;;;;;;5075175;28;20036;-68
2023/06/26 00:34:11;;;;;;;4.28;3.92;;;28.90;99.90;;;;;;5075398;28;20029;-69
2023/06/26 00:36:37;;;;;;;7.97;4.60;;;28.90;99.90;;;;;;5075478;28;20032;-68
2023/06/26 00:39:03;;;;;;;4.72;4.32;;;28.90;99.90;;;;;;5075145;28;20028;-69
2023/06/26 00:41:29;;;;;;;8.40;4.53;;;28.80;99.90;;;;;;5075557;28;20027;-69
2023/06/26 00:43:55;;;;;;;6.32;4.97;;;28.80;99.90;;;;;;5075193;28;20020;-69
2023/06/26 00:46:20;;;;;;;5.55;4.05;;;28.80;99.90;;;;;;5074940;28;20051;-69
2023/06/26 00:48:48;;;;;;;5.95;4.60;;;28.90;99.90;;;;;;5073813;28;20024;-69
2023/06/26 00:51:14;;;;;;;7.18;4.20;;;28.80;99.90;;;;;;5074340;28;20020;-69
2023/06/26 00:53:39;;;;;;;5.30;3.80;;;28.90;99.90;;;;;;5072718;28;20028;-69
2023/06/26 00:56:06;;;;;;;6.93;4.40;;;29.00;99.90;;;;;;5075016;28;20405;-69
2023/06/26 00:58:32;;;;;;;4.35;3.78;;;28.80;99.90;;;;;;5074890;28;20099;-69
2023/06/26 01:00:58;;;;;;;5.85;4.57;;;28.90;99.90;;;;;;5074671;28;20547;-69
2023/06/26 01:03:25;;;;;;;7.95;4.53;;;28.90;99.90;;;;;;5075132;28;20017;-69
2023/06/26 01:05:53;;;;;;;5.05;4.40;;;28.80;99.90;;;;;;5074657;28;20021;-69
2023/06/26 01:08:20;;;;;;;5.72;5.22;;;28.90;99.90;;;;;;5074651;28;20070;-68
2023/06/26 01:10:46;;;;;;;5.30;4.47;;;28.70;99.90;;;;;;5073535;28;20033;-68
2023/06/26 01:13:13;;;;;;;6.50;4.70;;;28.80;99.90;;;;;;5073699;28;20021;-68
2023/06/26 01:15:40;;;;;;;5.45;4.43;;;28.80;99.90;;;;;;5073696;28;20029;-68
2023/06/26 01:18:06;;;;;;;5.22;4.72;;;28.70;99.90;;;;;;5072184;28;20661;-68
2023/06/26 01:20:36;;;;;;;6.00;4.68;;;28.50;99.90;;;;;;5073787;28;20017;-69
2023/06/26 01:23:47;;;;;;;8.27;4.88;;;28.50;99.90;;;;;;5074070;28;20115;-68
2023/06/26 01:26:28;;;;;;;5.70;4.45;;;28.60;99.90;;;;;;5073160;28;20036;-68
2023/06/26 01:28:56;;;;;;;6.07;4.63;;;28.50;99.90;;;;;;5074351;28;20578;-68
2023/06/26 01:31:23;;;;;;;6.63;4.55;;;28.60;99.90;;;;;;5073806;28;20044;-68
2023/06/26 01:33:50;;;;;;;7.30;4.38;;;28.70;99.90;;;;;;5070141;28;20025;-68
2023/06/26 01:36:16;;;;;;;7.13;4.55;;;28.60;99.90;;;;;;5071015;28;20032;-68
2023/06/26 01:38:42;;;;;;;9.05;5.32;;;28.60;99.90;;;;;;5070726;28;20029;-69
2023/06/26 01:41:08;;;;;;;8.80;4.88;;;28.50;99.90;;;;;;5074395;28;20532;-68
2023/06/26 01:43:57;;;;;;;8.50;4.68;;;28.20;99.90;;;;;;5073380;28;20031;-68
2023/06/26 01:46:29;;;;;;;9.75;4.93;;;28.10;99.90;;;;;;5071942;28;20104;-68
2023/06/26 01:49:01;;;;;;;6.95;5.18;;;28.00;99.90;;;;;;5073184;28;20017;-69
2023/06/26 01:51:34;;;;;;;8.10;4.80;;;28.00;99.90;;;;;;5071766;28;20039;-69
2023/06/26 01:54:01;;;;;;;7.30;4.87;;;27.90;99.90;;;;;;5073137;28;20020;-68
2023/06/26 01:56:29;;;;;;;5.65;5.07;;;28.00;99.90;;;;;;5072060;28;20105;-67
2023/06/26 01:58:56;;;;;;;5.55;4.65;;;28.00;99.90;;;;;;5070442;28;20543;-68
2023/06/26 02:01:22;;;;;;;7.13;4.50;;;28.10;99.90;;;;;;5073746;28;20074;-68
2023/06/26 02:03:48;;;;;;;5.85;4.53;;;28.00;99.90;;;;;;5070546;28;20024;-68
2023/06/26 02:06:14;;;;;;;6.03;4.32;;;28.00;99.90;;;;;;5070085;28;20024;-68
2023/06/26 02:08:40;;;;;;;4.82;4.28;;;28.10;99.90;;;;;;5072266;28;20055;-68
2023/06/26 02:11:06;;;;;;;4.72;4.15;;;28.20;99.90;;;;;;5068392;28;20045;-68
2023/06/26 02:13:32;;;;;;;5.25;4.40;;;28.10;99.90;;;;;;5057800;28;20074;-68
2023/06/26 02:15:58;;;;;;;5.95;4.50;;;28.00;99.90;;;;;;5072541;28;20381;-69
2023/06/26 02:18:24;;;;;;;5.60;4.60;;;28.00;99.90;;;;;;5072504;28;20501;-68
2023/06/26 02:20:50;;;;;;;4.18;3.78;;;28.00;99.90;;;;;;5073400;28;20029;-68
2023/06/26 02:23:15;;;;;;;7.28;4.18;;;27.90;99.90;;;;;;5072218;28;20016;-69
2023/06/26 02:25:41;;;;;;;4.82;3.90;;;28.00;99.90;;;;;;5063285;28;20462;-68
2023/06/26 02:28:07;;;;;;;4.97;3.92;;;27.90;99.90;;;;;;5069882;28;20437;-68
2023/06/26 02:30:32;;;;;;;5.70;4.22;;;27.90;99.90;;;;;;5071885;28;20017;-69
2023/06/26 02:32:58;;;;;;;4.40;3.85;;;27.90;99.90;;;;;;5072409;28;20104;-69
2023/06/26 02:35:24;;;;;;;5.80;4.45;;;28.00;99.90;;;;;;5073416;28;20052;-68
2023/06/26 02:37:50;;;;;;;5.97;4.10;;;27.80;99.90;;;;;;5072108;28;20044;-69
2023/06/26 02:40:15;;;;;;;5.88;4.18;;;27.80;99.90;;;;;;5072120;28;20024;-69
2023/06/26 02:42:41;;;;;;;4.57;4.18;;;27.70;99.90;;;;;;5069513;28;20032;-69
2023/06/26 02:45:07;;;;;;;6.25;4.25;;;27.60;99.90;;;;;;5071167;28;20067;-69
2023/06/26 02:47:33;;;;;;;4.88;4.43;;;27.50;99.90;;;;;;5072982;28;20131;-69
2023/06/26 02:49:59;;;;;;;3.88;3.53;;;27.60;99.90;;;;;;5072626;28;20524;-68
2023/06/26 02:52:24;;;;;;;4.90;4.50;;;27.70;99.90;;;;;;5072597;28;20029;-68
2023/06/26 02:54:50;;;;;;;4.60;4.20;;;27.60;99.90;;;;;;5071362;28;20108;-69
2023/06/26 02:57:16;;;;;;;4.45;3.72;;;27.50;99.90;;;;;;5073183;28;20112;-68
2023/06/26 02:59:42;;;;;;;4.25;3.85;;;27.60;99.90;;;;;;5071847;28;20036;-69
2023/06/26 03:02:08;;;;;;;5.40;3.90;;;27.50;99.90;;;;;;5073081;28;20054;-68
2023/06/26 03:04:36;;;;;;;4.65;4.03;;;27.40;99.90;;;;;;5070513;28;20025;-68
2023/06/26 03:07:03;;;;;;;5.07;3.80;;;27.40;99.90;;;;;;5070345;28;20089;-68
2023/06/26 03:09:28;;;;;;;4.70;4.05;;;27.40;99.90;;;;;;5072793;28;20013;-69
2023/06/26 03:11:55;;;;;;;4.78;3.97;;;27.40;99.90;;;;;;5071642;28;20186;-68
2023/06/26 03:14:21;;;;;;;5.13;4.72;;;27.30;99.90;;;;;;5073150;28;20028;-69
2023/06/26 03:16:47;;;;;;;5.80;5.30;;;27.30;99.90;;;;;;5072882;28;20505;-68
2023/06/26 03:19:12;;;;;;;7.40;6.72;;;27.30;99.90;;;;;;5076844;28;20051;-68
2023/06/26 03:21:38;;;;;;;10.15;8.63;;;27.10;99.90;;;;;;5072556;28;20500;-68
2023/06/26 03:24:04;;;;;;;11.73;10.63;;;27.20;99.90;;;;;;5063226;28;20029;-68
2023/06/26 03:26:29;;;;;;;17.58;12.65;;;27.10;99.90;;;;;;5076146;28;20029;-68
2023/06/26 03:28:55;;;;;;;13.35;11.98;;;27.20;99.90;;;;;;5072380;28;20116;-69
2023/06/26 03:31:21;;;;;;;12.77;11.52;;;27.20;99.90;;;;;;5073327;28;20032;-68
2023/06/26 03:33:46;;;;;;;14.50;11.85;;;27.20;99.90;;;;;;5074696;28;20021;-68
2023/06/26 03:36:12;;;;;;;13.73;12.38;;;27.20;99.90;;;;;;5074702;28;20493;-68
2023/06/26 03:38:38;;;;;;;14.52;12.27;;;27.20;99.90;;;;;;5076722;28;20032;-68
2023/06/26 03:41:04;;;;;;;12.43;11.07;;;27.30;99.90;;;;;;5075535;28;20497;-68
2023/06/26 03:43:29;;;;;;;11.60;10.48;;;27.30;99.90;;;;;;5073538;28;20452;-68
2023/06/26 03:45:55;;;;;;;15.77;11.48;;;27.30;99.90;;;;;;5076317;28;20048;-68
2023/06/26 03:48:21;;;;;;;12.77;10.68;;;27.20;99.90;;;;;;5075079;28;20059;-68
2023/06/26 03:50:46;;;;;;;10.70;9.60;;;27.20;99.90;;;;;;5076411;28;20032;-68
2023/06/26 03:53:12;;;;;;;9.68;8.73;;;27.20;99.90;;;;;;5075224;28;20433;-68
2023/06/26 03:55:38;;;;;;;9.65;8.40;;;27.20;99.90;;;;;;5076095;28;20496;-68
2023/06/26 03:58:04;;;;;;;8.15;7.28;;;27.00;99.90;;;;;;5074199;28;20028;-69
2023/06/26 04:00:30;;;;;;;8.63;5.65;;;27.00;99.90;;;;;;5075269;28;20063;-68
2023/06/26 04:02:57;;;;;;;9.73;6.15;;;27.20;99.90;;;;;;5074867;28;20064;-68
2023/06/26 04:05:25;;;;;;;8.82;6.30;;;27.20;99.90;;;;;;5076029;28;20100;-68
2023/06/26 04:07:52;;;;;;;9.07;5.20;;;27.20;99.90;;;;;;5073855;28;20075;-68
2023/06/26 04:10:18;;;;;;;7.00;6.10;;;27.20;99.90;;;;;;5075879;28;20024;-69
2023/06/26 04:12:44;;;;;;;5.28;4.78;;;27.10;99.90;;;;;;5073197;28;20371;-68
2023/06/26 04:15:09;;;;;;;5.85;5.13;;;27.10;99.90;;;;;;5075823;28;20031;-69
2023/06/26 04:17:35;;;;;;;7.82;4.82;;;27.20;99.90;;;;;;5074829;28;20040;-68
2023/06/26 04:20:01;;;;;;;5.13;4.47;;;27.10;99.90;;;;;;5075772;28;20024;-68
2023/06/26 04:22:26;;;;;;;7.10;5.13;;;27.10;99.90;;;;;;5074911;28;20047;-68
2023/06/26 04:24:52;;;;;;;8.00;4.50;;;27.10;99.90;;;;;;5075579;28;20496;-68
2023/06/26 04:27:18;;;;;;;5.07;4.57;;;27.10;99.90;;;;;;5073197;28;20028;-68
2023/06/26 04:29:44;;;;;;;5.68;4.35;;;27.10;99.90;;;;;;5074440;28;20072;-68
2023/06/26 04:32:09;;;;;;;8.25;5.10;;;27.00;99.90;;;;;;5074639;28;20129;-68
2023/06/26 04:34:41;;;;;;;6.35;4.38;;;27.10;99.90;;;;;;5074659;28;20041;-68
2023/06/26 04:37:06;;;;;;;5.97;4.45;;;27.10;99.90;;;;;;5074832;28;20040;-68
2023/06/26 04:39:32;;;;;;;5.05;4.40;;;27.10;99.90;;;;;;5075396;28;20378;-69
2023/06/26 04:41:58;;;;;;;5.18;4.68;;;27.10;99.90;;;;;;5072957;28;20031;-68
2023/06/26 04:44:24;;;;;;;6.88;4.57;;;27.10;99.90;;;;;;5075326;28;20024;-69
2023/06/26 04:46:51;;;;;;;4.43;4.03;;;27.00;99.90;;;;;;5072353;28;20032;-68
2023/06/26 04:49:17;;;;;;;5.13;4.22;;;27.10;99.90;;;;;;5075333;28;20036;-68
2023/06/26 04:51:43;;;;;;;10.48;4.35;;;27.00;99.90;;;;;;5073860;28;20090;-68
2023/06/26 04:54:11;;;;;;;5.13;4.03;;;27.10;99.90;;;;;;5075107;28;20036;-69
2023/06/26 04:56:39;;;;;;;6.07;4.18;;;27.10;99.90;;;;;;5071991;28;20036;-69
2023/06/26 04:59:06;;;;;;;4.72;3.95;;;27.10;99.90;;;;;;5063919;28;20025;-69
2023/06/26 05:01:32;;;;;;;5.15;4.25;;;27.20;99.90;;;;;;5071583;28;20359;-68
2023/06/26 05:03:58;;;;;;;6.80;4.57;;;27.20;99.90;;;;;;5074877;28;20428;-69
2023/06/26 05:06:24;;;;;;;5.13;3.85;;;27.10;99.90;;;;;;5074169;28;20051;-69
2023/06/26 05:08:49;;;;;;;6.28;4.60;;;27.20;99.90;;;;;;5074579;28;20371;-69
2023/06/26 05:11:15;;;;;;;5.72;4.00;;;27.10;99.90;;;;;;5072588;28;20044;-69
2023/06/26 05:13:41;;;;;;;6.68;4.50;;;27.10;99.90;;;;;;5074687;28;20044;-69
2023/06/26 05:16:08;;;;;;;6.35;3.85;;;27.10;99.90;;;;;;5073011;28;20044;-68
2023/06/26 05:18:35;;;;;;;6.60;3.90;;;27.10;99.90;;;;;;5074738;28;20020;-69
2023/06/26 05:21:01;;;;;;;10.18;4.10;;;27.20;99.90;;;;;;5073439;28;20024;-68
2023/06/26 05:23:30;;;;;;;5.03;4.20;;;27.20;99.90;;;;;;5074534;28;20025;-69
2023/06/26 05:25:56;;;;;;;5.70;3.85;;;27.30;99.90;;;;;;5073231;28;20054;-69
2023/06/26 05:28:24;;;;;;;9.13;4.07;;;27.20;99.90;;;;;;5072451;28;20449;-68
2023/06/26 05:30:50;;;;;;;6.28;4.40;;;27.20;99.90;;;;;;5074516;28;20033;-68
2023/06/26 05:33:18;;;;;;;9.13;4.65;;;27.20;99.90;;;;;;5072356;28;20032;-68
2023/06/26 05:35:45;;;;;;;5.35;4.60;;;27.20;99.90;;;;;;5074220;28;20033;-69
2023/06/26 05:38:13;;;;;;;5.13;4.18;;;27.30;99.90;;;;;;5068973;28;20074;-69
2023/06/26 05:40:40;;;;;;;8.45;4.50;;;27.40;99.90;;;;;;5073542;28;20029;-68
2023/06/26 05:43:06;;;;;;;7.22;4.15;;;27.40;99.90;;;;;;5069083;28;20473;-68
2023/06/26 05:45:32;;;;;;;6.97;4.78;;;27.40;99.90;;;;;;5070979;28;20056;-68
2023/06/26 05:47:58;;;;;;;7.40;5.03;;;27.30;99.90;;;;;;5074236;28;20071;-69
2023/06/26 05:50:24;;;;;;;7.60;4.88;;;27.30;99.90;;;;;;5072875;28;20020;-69
2023/06/26 05:52:50;;;;;;;9.63;4.78;;;27.30;99.90;;;;;;5072002;28;20044;-68
2023/06/26 05:55:16;;;;;;;5.72;4.15;;;27.30;99.90;;;;;;5074041;28;20108;-69
2023/06/26 05:57:43;;;;;;;7.15;4.25;;;27.40;99.90;;;;;;5066166;28;20024;-68
2023/06/26 06:00:11;;;;;;;7.75;4.00;;;27.40;99.90;;;;;;5073792;28;20028;-68
2023/06/26 06:02:38;;;;;;;8.30;4.65;;;27.40;99.90;;;;;;5072957;28;20036;-68
2023/06/26 06:05:05;;;;;;;7.95;4.22;;;27.40;99.90;;;;;;5068334;28;20111;-68
2023/06/26 06:07:32;;;;;;;7.60;4.38;;;27.50;99.90;;;;;;5066217;28;20028;-68
2023/06/26 06:09:58;;;;;;;5.22;4.47;;;27.50;99.90;;;;;;5073474;28;20490;-68
2023/06/26 06:12:24;;;;;;;6.30;4.50;;;27.50;99.90;;;;;;5070051;28;20497;-68
2023/06/26 06:14:49;;;;;;;5.10;4.40;;;27.40;99.90;;;;;;5073508;28;20032;-69
2023/06/26 06:17:15;;;;;;;8.07;4.63;;;27.50;99.90;;;;;;5069823;28;20028;-69
2023/06/26 06:19:41;;;;;;;10.43;4.50;;;27.40;99.90;;;;;;5072177;28;20025;-68
2023/06/26 06:22:06;;;;;;;6.95;4.90;;;27.50;99.90;;;;;;5070423;28;20046;-68
2023/06/26 06:24:32;;;;;;;8.82;4.95;;;27.50;99.90;;;;;;5072319;28;20070;-68
2023/06/26 06:26:58;;;;;;;9.48;5.05;;;27.60;99.90;;;;;;5067766;28;20036;-68
2023/06/26 06:29:23;;;;;;;8.20;4.65;;;27.60;99.90;;;;;;5073240;28;20052;-69
2023/06/26 06:31:49;;;;;;;10.65;4.90;;;27.60;99.90;;;;;;5072199;28;20375;-68
2023/06/26 06:34:14;;;;;;;11.85;4.75;;;27.60;99.90;;;;;;5073155;28;20355;-68
2023/06/26 06:36:40;;;;;;;11.05;5.28;;;27.70;99.90;;;;;;5071565;28;20029;-69
2023/06/26 06:39:06;;;;;;;7.97;4.80;;;27.70;99.90;;;;;;5069240;28;20103;-68
2023/06/26 06:41:31;;;;;;;7.30;4.72;;;27.80;99.90;;;;;;5072768;28;20495;-68
2023/06/26 06:43:57;;;;;;;11.18;4.60;;;27.80;99.90;;;;;;5064203;28;20079;-68
2023/06/26 06:46:23;;;;;;;7.53;4.50;;;27.80;99.90;;;;;;5072746;28;20024;-68
2023/06/26 06:48:49;;;;;;;13.30;5.18;;;27.90;99.90;;;;;;5071460;28;20025;-68
2023/06/26 06:51:14;;;;;;;13.82;5.32;;;27.80;99.90;;;;;;5065347;28;20114;-68
2023/06/26 06:53:40;;;;;;;6.38;4.75;;;27.90;99.90;;;;;;5067334;28;20036;-68
2023/06/26 06:56:05;;;;;;;8.10;4.82;;;28.00;99.90;;;;;;5073583;28;20024;-66
2023/06/26 06:58:33;;;;;;;6.15;4.40;;;28.00;99.90;;;;;;5070157;28;20052;-66
2023/06/26 07:00:59;;;;;;;4.88;4.13;;;28.00;99.90;;;;;;5073461;28;20029;-69
2023/06/26 07:03:25;;;;;;;6.05;3.65;;;28.00;99.90;;;;;;5072580;28;20055;-71
2023/06/26 07:05:51;;;;;;;5.78;4.57;;;28.00;99.90;;;;;;5073672;28;20056;-67
2023/06/26 07:08:16;;;;;;;9.18;5.07;;;28.10;99.90;;;;;;5070223;28;20020;-68
2023/06/26 07:10:42;;;;;;;5.78;4.53;;;28.20;99.90;;;;;;5074632;28;20039;-73
2023/06/26 07:13:08;;;;;;;7.68;4.80;;;28.30;99.90;;;;;;5073496;28;20028;-69
2023/06/26 07:15:33;;;;;;;6.15;4.50;;;28.40;99.90;;;;;;5073930;28;20351;-72
2023/06/26 07:17:59;;;;;;;5.68;4.50;;;28.40;99.90;;;;;;5069758;28;20435;-89
2023/06/26 07:20:25;;;;;;;6.57;4.75;;;28.30;99.90;;;;;;5073782;28;20487;-77
2023/06/26 07:22:50;;;;;;;6.40;4.82;;;28.20;99.90;;;;;;5070790;28;20036;-77
2023/06/26 07:25:16;;;;;;;6.75;4.30;;;28.50;99.90;;;;;;5073713;28;20069;-71
2023/06/26 07:27:42;;;;;;;4.68;3.80;;;28.80;99.90;;;;;;5066350;28;20024;-70
2023/06/26 07:30:09;;;;;;;6.03;4.85;;;28.50;99.90;;;;;;5068090;28;20060;-63
2023/06/26 07:32:35;;;;;;;8.82;4.45;;;28.70;99.90;;;;;;5067547;28;20505;-66
2023/06/26 07:35:01;;;;;;;7.38;4.68;;;28.40;99.90;;;;;;5072566;28;20021;-66
2023/06/26 07:37:26;;;;;;;6.88;4.10;;;28.60;99.90;;;;;;5068786;28;20424;-65
2023/06/26 07:39:52;;;;;;;7.30;4.57;;;28.70;99.90;;;;;;5066263;28;20485;-63
2023/06/26 07:42:18;;;;;;;5.53;5.00;;;28.70;99.90;;;;;;5059150;28;20035;-64
2023/06/26 07:44:43;;;;;;;6.90;4.90;;;28.80;99.90;;;;;;5070900;28;20051;-65
2023/06/26 07:47:09;;;;;;;6.00;4.63;;;28.70;99.90;;;;;;5063226;28;20066;-65
2023/06/26 07:49:35;;;;;;;5.72;4.43;;;28.70;99.90;;;;;;5071806;28;20056;-66
2023/06/26 07:52:01;;;;;;;7.65;4.88;;;28.70;99.90;;;;;;5071231;28;20513;-66
2023/06/26 07:54:27;;;;;;;7.10;5.40;;;28.90;99.90;;;;;;5068511;28;20025;-65
2023/06/26 07:57:01;;;;;;;7.00;4.68;;;29.00;99.90;;;;;;5096980;28;20841;-64
2023/06/26 07:59:28;;;;;;;6.93;5.18;;;29.00;99.90;;;;;;5068582;28;20036;-66
2023/06/26 08:01:55;;;;;;;6.68;5.35;;;28.40;99.90;;;;;;5058636;28;20045;-64
2023/06/26 08:04:25;;;;;;;7.30;4.82;;;28.40;99.90;;;;;;5074160;28;20475;-65
2023/06/26 08:06:53;;;;;;;8.00;4.75;;;28.70;99.90;;;;;;5076007;28;20025;-65
2023/06/26 08:09:22;;;;;;;8.38;4.95;;;28.70;99.90;;;;;;5075011;28;20027;-67
2023/06/26 08:11:48;;;;;;;6.97;4.43;;;28.80;99.90;;;;;;5075833;28;20490;-61
2023/06/26 08:14:14;;;;;;;10.48;4.97;;;29.10;99.90;;;;;;5073239;28;20027;-59
2023/06/26 08:16:41;;;;;;;9.00;5.13;;;29.40;99.90;;;;;;5074770;28;20039;-59
2023/06/26 08:19:07;;;;;;;7.45;4.85;;;30.00;99.90;;;;;;5075698;28;20488;-59
2023/06/26 08:21:33;;;;;;;6.05;5.13;;;29.90;99.90;;;;;;5074552;28;20127;-58
2023/06/26 08:23:58;;;;;;;7.65;5.22;;;30.00;99.90;;;;;;5075997;28;20517;-65
2023/06/26 08:26:24;;;;;;;12.70;5.13;;;30.10;99.90;;;;;;5072031;28;20090;-70
2023/06/26 08:28:50;;;;;;;8.27;5.35;;;30.70;99.90;;;;;;5074968;28;20413;-67
2023/06/26 08:31:16;;;;;;;10.18;6.10;;;30.50;99.90;;;;;;5072953;28;20123;-68
2023/06/26 08:33:42;;;;;;;7.35;4.80;;;29.90;99.90;;;;;;5071916;28;20029;-68
2023/06/26 08:36:08;;;;;;;8.82;5.35;;;30.40;99.90;;;;;;5060358;28;20028;-63
2023/06/26 08:38:33;;;;;;;10.73;5.40;;;30.50;99.90;;;;;;5074948;28;20493;-70
2023/06/26 08:40:59;;;;;;;7.47;5.45;;;30.40;99.90;;;;;;5075321;28;20032;-67
2023/06/26 08:43:26;;;;;;;8.20;5.75;;;30.10;99.90;;;;;;5067890;28;20486;-73
2023/06/26 08:45:52;;;;;;;5.63;5.03;;;30.20;99.90;;;;;;5072381;28;20020;-63
2023/06/26 08:48:20;;;;;;;10.85;5.60;;;30.50;99.90;;;;;;5073122;28;20519;-65
2023/06/26 08:50:48;;;;;;;5.40;4.90;;;30.40;99.90;;;;;;5074029;28;20039;-64
2023/06/26 08:53:27;;;;;;;7.15;5.63;;;30.80;99.90;;;;;;5061191;28;20029;-63
2023/06/26 08:55:54;;;;;;;7.47;5.18;;;30.70;99.90;;;;;;5072960;28;20029;-62
2023/06/26 08:58:20;;;;;;;9.98;5.85;;;31.10;99.90;;;;;;5075177;28;20397;-63
2023/06/26 09:00:46;;;;;;;6.22;5.00;;;31.50;99.90;;;;;;5069679;28;20021;-72
2023/06/26 09:03:13;;;;;;;6.70;4.63;;;31.00;99.90;;;;;;5072152;28;20032;-65
2023/06/26 09:05:39;;;;;;;6.72;4.88;;;31.00;99.90;;;;;;5075002;28;20047;-66
2023/06/26 09:08:05;;;;;;;6.95;4.70;;;31.10;99.90;;;;;;5072164;28;20123;-66
2023/06/26 09:10:31;;;;;;;7.60;5.45;;;31.60;99.90;;;;;;5073422;28;20058;-65
2023/06/26 09:12:57;;;;;;;6.07;4.32;;;31.60;99.90;;;;;;5069362;28;20044;-64
2023/06/26 09:15:23;;;;;;;11.77;5.55;;;31.10;99.90;;;;;;5070247;28;20020;-66
2023/06/26 09:17:50;;;;;;;7.10;4.53;;;30.90;99.90;;;;;;5071906;28;20029;-65
2023/06/26 09:20:15;;;;;;;6.68;5.47;;;31.20;99.90;;;;;;5073165;28;20020;-65
2023/06/26 09:22:43;;;;;;;9.98;5.75;;;31.60;99.90;;;;;;5058496;28;20611;-65
2023/06/26 09:25:09;;;;;;;6.20;5.38;;;31.10;99.90;;;;;;5070409;28;20035;-67
2023/06/26 09:27:36;;;;;;;7.10;6.40;;;30.80;99.90;;;;;;5063751;28;20036;-63
2023/06/26 09:30:03;;;;;;;6.85;4.90;;;30.50;99.90;;;;;;5073882;28;20124;-62
2023/06/26 09:32:29;;;;;;;6.50;5.90;;;31.40;99.90;;;;;;5066948;28;20040;-62
2023/06/26 09:34:55;;;;;;;7.00;5.53;;;31.90;99.90;;;;;;5061158;28;20032;-65
2023/06/26 09:37:22;;;;;;;13.27;5.80;;;31.10;99.90;;;;;;5064236;28;20024;-65
2023/06/26 09:39:49;;;;;;;7.38;5.80;;;30.90;99.90;;;;;;5065908;28;20132;-63
2023/06/26 09:42:15;;;;;;;8.63;5.88;;;31.10;99.90;;;;;;5069611;28;20031;-63
2023/06/26 09:44:45;;;;;;;6.53;5.43;;;31.00;99.90;;;;;;5060509;28;20116;-65
2023/06/26 09:47:10;;;;;;;6.93;5.55;;;31.20;99.90;;;;;;5059605;28;20040;-76
2023/06/26 09:49:36;;;;;;;8.77;5.43;;;32.20;99.90;;;;;;5057441;28;20025;-71
2023/06/26 09:52:02;;;;;;;6.10;4.88;;;32.20;99.90;;;;;;5067801;28;20094;-68
2023/06/26 09:54:30;;;;;;;9.05;5.95;;;31.60;99.90;;;;;;5069987;28;20032;-66
2023/06/26 09:57:06;;;;;;;5.82;5.32;;;32.00;99.90;;;;;;5071583;28;20029;-67
2023/06/26 09:59:33;;;;;;;7.75;5.22;;;31.60;99.90;;;;;;5070031;28;20043;-72
2023/06/26 10:02:24;;;;;;;7.00;5.13;;;32.20;99.90;;;;;;5067075;28;20032;-65
2023/06/26 10:04:49;;;;;;;8.52;5.38;;;32.50;99.90;;;;;;5067245;28;20056;-73
2023/06/26 10:07:17;;;;;;;5.68;5.15;;;32.40;99.90;;;;;;5070726;28;20430;-67
2023/06/26 10:09:44;;;;;;;6.38;4.45;;;32.60;99.90;;;;;;5064420;28;20013;-63
2023/06/26 10:12:36;;;;;;;5.70;5.20;;;32.40;99.90;;;;;;5072536;28;20553;-59
2023/06/26 10:15:04;;;;;;;7.10;4.88;;;32.40;99.90;;;;;;5069219;28;20512;-64
2023/06/26 10:17:34;;;;;;;6.35;5.72;;;32.20;99.90;;;;;;5070954;28;20851;-64
2023/06/26 10:20:03;;;;;;;7.55;5.70;;;32.30;99.90;;;;;;5064809;28;20676;-64
2023/06/26 10:22:58;;;;;;;6.65;5.25;;;31.90;99.90;;;;;;5066283;28;20025;-65
2023/06/26 10:25:26;;;;;;;5.78;5.15;;;33.10;99.90;;;;;;5063071;28;20025;-66
2023/06/26 10:27:56;;;;;;;8.57;6.18;;;33.60;99.90;;;;;;5066683;28;20024;-67
2023/06/26 10:30:27;;;;;;;6.70;6.00;;;32.70;99.90;;;;;;5067488;28;20044;-64
2023/06/26 10:32:54;;;;;;;7.28;5.70;;;32.40;99.90;;;;;;5071015;28;20041;-66
2023/06/26 10:35:20;;;;;;;7.40;5.15;;;32.90;99.90;;;;;;5072118;28;20460;-66
2023/06/26 10:37:50;;;;;;;9.60;6.43;;;32.90;99.90;;;;;;5072058;28;20105;-66
2023/06/26 10:40:39;;;;;;;6.43;5.28;;;32.60;99.90;;;;;;5069813;28;20031;-62
2023/06/26 10:43:09;;;;;;;6.95;5.88;;;32.40;99.90;;;;;;5070108;28;20071;-70
2023/06/26 10:45:36;;;;;;;10.57;6.13;;;32.60;99.90;;;;;;5071955;28;20554;-66
2023/06/26 10:48:04;;;;;;;7.88;5.90;;;32.60;99.90;;;;;;5069214;28;20028;-68
2023/06/26 10:50:31;;;;;;;10.05;6.45;;;32.50;99.90;;;;;;5068491;28;20432;-68
2023/06/26 10:53:34;;;;;;;9.10;6.78;;;32.50;99.90;;;;;;5071368;28;20454;-68
2023/06/26 10:56:05;;;;;;;9.52;6.63;;;32.60;99.90;;;;;;5070574;28;20028;-68
2023/06/26 10:58:34;;;;;;;7.50;6.80;;;32.90;99.90;;;;;;5072225;28;20052;-68
2023/06/26 11:01:14;;;;;;;8.75;7.95;;;32.90;99.90;;;;;;5072286;28;20024;-68
2023/06/26 11:03:43;;;;;;;7.03;6.32;;;32.70;99.90;;;;;;5072023;28;20032;-68
2023/06/26 11:06:13;;;;;;;10.65;8.07;;;32.90;99.90;;;;;;5104666;28;20051;-69
2023/06/26 11:08:55;;;;;;;7.95;7.15;;;32.70;99.90;;;;;;5068261;28;20119;-69
2023/06/26 11:11:53;;;;;;;6.80;6.30;;;32.30;99.90;;;;;;5069986;28;20047;-68
2023/06/26 11:14:19;;;;;;;7.50;6.65;;;32.70;99.90;;;;;;5067907;28;20031;-68
2023/06/26 11:16:45;;;;;;;9.85;6.43;;;32.90;99.90;;;;;;5071866;28;20040;-68
2023/06/26 11:19:13;;;;;;;7.13;6.45;;;33.20;99.90;;;;;;5071807;28;20027;-68
2023/06/26 11:21:39;;;;;;;7.57;6.82;;;35.00;99.90;;;;;;5068661;28;20028;-67
2023/06/26 11:24:07;;;;;;;9.93;7.18;;;37.10;99.90;;;;;;5071680;28;20028;-67
2023/06/26 11:26:44;;;;;;;6.60;6.00;;;39.00;99.90;;;;;;5071747;28;20035;-67
2023/06/26 11:29:10;;;;;;;6.90;6.30;;;40.50;99.90;;;;;;5068250;28;20061;-67
2023/06/26 11:31:38;;;;;;;7.20;6.38;;;41.20;99.90;;;;;;5071902;28;20123;-67
2023/06/26 11:34:11;;;;;;;6.72;6.13;;;40.10;99.90;;;;;;5071774;28;20163;-68
2023/06/26 11:36:37;;;;;;;7.53;6.72;;;40.00;99.90;;;;;;5067118;28;20098;-68
2023/06/26 11:39:08;;;;;;;8.13;7.32;;;41.50;99.90;;;;;;5074765;28;20032;-68
2023/06/26 11:41:35;;;;;;;8.18;7.57;;;44.00;99.90;;;;;;5075584;28;20024;-69
2023/06/26 11:44:02;;;;;;;8.02;7.22;;;45.40;99.90;;;;;;5075464;28;20024;-67
2023/06/26 11:46:28;;;;;;;8.73;7.82;;;44.80;99.90;;;;;;5074054;28;20055;-68
2023/06/26 11:48:54;;;;;;;8.52;7.80;;;46.20;99.90;;;;;;5073345;28;20048;-67
2023/06/26 11:51:20;;;;;;;9.07;8.18;;;46.70;99.90;;;;;;5075172;28;20114;-67
2023/06/26 11:53:47;;;;;;;9.57;8.73;;;46.40;99.90;;;;;;5075336;28;20083;-68
2023/06/26 11:56:17;;;;;;;8.38;7.45;;;46.40;99.90;;;;;;5075115;28;20013;-68
2023/06/26 11:59:06;;;;;;;8.85;8.05;;;45.80;99.90;;;;;;5075107;28;20512;-67
2023/06/26 12:01:37;;;;;;;7.88;7.28;;;45.60;99.90;;;;;;5074796;28;20016;-68
2023/06/26 12:04:04;;;;;;;8.90;8.00;;;45.50;99.90;;;;;;5075440;28;20024;-67
2023/06/26 12:06:41;;;;;;;8.02;7.05;;;46.10;99.90;;;;;;5070390;28;20031;-67
2023/06/26 12:09:12;;;;;;;8.27;7.57;;;45.20;99.90;;;;;;5075252;28;20020;-67
2023/06/26 12:11:42;;;;;;;9.20;7.35;;;44.00;99.90;;;;;;5074932;28;20850;-67
2023/06/26 12:14:09;;;;;;;8.80;7.88;;;42.60;99.90;;;;;;5074873;28;20082;-68
2023/06/26 12:16:35;;;;;;;7.78;7.05;;;41.20;99.90;;;;;;5074847;28;20100;-68
2023/06/26 12:19:03;;;;;;;7.90;7.40;;;40.40;99.90;;;;;;5074853;28;20032;-68
2023/06/26 12:21:37;;;;;;;9.43;7.97;;;41.80;99.90;;;;;;5070685;28;20095;-68
2023/06/26 12:24:03;;;;;;;7.63;7.00;;;42.20;99.90;;;;;;5071488;28;20040;-68
2023/06/26 12:26:29;;;;;;;8.63;7.72;;;42.10;99.90;;;;;;5074754;28;20059;-68
2023/06/26 12:29:22;;;;;;;8.23;7.53;;;41.10;99.90;;;;;;5074406;28;20076;-67
2023/06/26 12:31:52;;;;;;;7.65;6.95;;;40.60;99.90;;;;;;5090066;28;20044;-68
2023/06/26 12:34:33;;;;;;;7.60;7.05;;;40.70;99.90;;;;;;5074863;28;20032;-67
2023/06/26 12:37:05;;;;;;;8.25;7.53;;;40.10;99.90;;;;;;5070581;28;20032;-67
2023/06/26 12:39:48;;;;;;;7.82;7.13;;;38.70;99.90;;;;;;5074549;28;20016;-68
2023/06/26 12:42:15;;;;;;;;;;;39.00;99.90;;;;;;5075173;28;20387;-67
2023/06/26 12:44:41;;;;;;;8.00;7.18;;;40.40;99.90;;;;;;5074437;28;19955;-68
2023/06/26 12:47:07;;;;;;;7.45;6.90;;;41.40;99.90;;;;;;5074379;28;20068;-68